createdAt,value
2023-03-23T15:59:40.260Z,1.30
2023-03-23T16:02:43.741Z,1.00
2023-03-23T16:05:46.737Z,1.20
2023-03-23T16:08:53.878Z,1.10
2023-03-23T16:11:57.867Z,1.03
2023-03-23T16:15:02.454Z,1.00
2023-03-23T16:18:05.479Z,1.10
2023-03-23T16:21:09.169Z,1.17
2023-03-23T16:24:12.009Z,1.20
2023-03-23T16:27:15.120Z,1.20
2023-03-23T16:30:21.476Z,1.00
2023-03-23T16:33:24.375Z,1.20
2023-03-23T16:36:27.263Z,1.17
2023-03-23T16:39:30.244Z,1.10
2023-03-23T16:42:33.123Z,1.63
2023-03-23T16:45:38.218Z,1.40
2023-03-23T16:48:41.446Z,1.13
2023-03-23T16:51:44.280Z,1.20
2023-03-23T16:54:47.273Z,1.30
2023-03-23T16:57:49.997Z,1.83
2023-03-23T17:00:54.546Z,1.20
2023-03-23T17:03:57.618Z,2.07
2023-03-23T17:07:01.029Z,1.10
2023-03-23T17:10:06.062Z,1.00
2023-03-23T17:13:09.727Z,1.37
2023-03-23T17:16:13.952Z,18.10
2023-03-23T17:19:16.855Z,2.37
2023-03-23T17:22:20.457Z,3.90
2023-03-23T17:25:23.282Z,5.07
2023-03-23T17:28:26.221Z,8.83
2023-03-23T17:31:30.480Z,27.20
2023-03-23T17:34:33.384Z,14.63
2023-03-23T17:37:37.919Z,2.30
2023-03-23T17:40:40.860Z,4.97
2023-03-23T17:43:44.075Z,9.33
2023-03-23T17:46:48.321Z,9.90
2023-03-23T17:49:51.269Z,10.20
2023-03-23T17:52:54.120Z,1.60
2023-03-23T17:55:57.637Z,2.20
2023-03-23T17:59:00.414Z,1.83
2023-03-23T18:02:04.982Z,1.53
2023-03-23T18:05:09.636Z,1.37
2023-03-23T18:08:12.694Z,2.50
2023-03-23T18:11:15.611Z,4.97
2023-03-23T18:14:18.545Z,1.90
2023-03-23T18:17:23.257Z,1.80
2023-03-23T18:20:26.231Z,1.83
2023-03-23T18:23:29.742Z,3.90
2023-03-23T18:26:32.528Z,4.23
2023-03-23T18:29:35.238Z,5.50
2023-03-23T18:32:40.552Z,3.87
2023-03-23T18:35:44.376Z,3.60
2023-03-23T18:38:48.255Z,3.37
2023-03-23T18:41:51.246Z,3.27
2023-03-23T18:44:55.252Z,3.10
2023-03-23T18:47:59.544Z,2.83
2023-03-23T18:51:02.616Z,2.67
2023-03-23T18:54:05.987Z,2.60
2023-03-23T18:57:08.887Z,2.63
2023-03-23T19:00:12.743Z,2.47
2023-03-23T19:03:17.109Z,2.23
2023-03-23T19:06:22.730Z,2.70
2023-03-23T19:09:25.920Z,8.07
2023-03-23T19:12:28.900Z,7.83
2023-03-23T19:15:31.791Z,8.40
2023-03-23T19:18:36.235Z,9.17
2023-03-23T19:21:40.444Z,25.20
2023-03-23T19:24:43.237Z,10.40
2023-03-23T19:28:23.155Z,13.40
2023-03-23T19:31:09.543Z,15.47
2023-03-23T19:34:15.134Z,5.67
2023-03-23T19:37:18.624Z,4.97
2023-03-23T19:40:36.584Z,9.20
2023-03-23T19:43:43.894Z,6.33
2023-03-23T19:46:48.403Z,5.10
2023-03-23T19:49:52.849Z,4.97
2023-03-23T19:52:58.397Z,5.20
2023-03-23T19:56:05.094Z,4.80
2023-03-23T19:59:10.617Z,4.63
2023-03-23T20:02:14.406Z,4.50
2023-03-23T20:05:19.753Z,4.33
2023-03-23T20:08:22.557Z,4.00
2023-03-23T20:11:25.434Z,3.97
2023-03-23T20:14:29.349Z,3.60
2023-03-23T20:17:33.293Z,3.37
2023-03-23T20:20:44.322Z,4.30
2023-03-23T20:23:48.863Z,5.83
2023-03-23T20:26:59.326Z,6.50
2023-03-23T20:30:20.566Z,6.00
2023-03-23T20:33:29.040Z,7.43
2023-03-23T20:36:36.311Z,6.50
2023-03-23T20:39:47.820Z,6.70
2023-03-23T20:42:54.736Z,6.90
2023-03-23T20:45:58.533Z,8.10
2023-03-23T20:49:02.450Z,12.73
2023-03-23T20:52:11.869Z,5.27
2023-03-23T20:55:15.660Z,4.63
2023-03-23T20:58:19.186Z,4.07
2023-03-23T21:01:22.465Z,7.70
2023-03-23T21:04:27.261Z,8.00
2023-03-23T21:07:31.651Z,3.83
2023-03-23T21:10:35.258Z,3.57
2023-03-23T21:13:37.957Z,3.00
2023-03-23T21:16:41.584Z,5.50
2023-03-23T21:19:44.414Z,4.27
2023-03-23T21:22:48.515Z,9.53
2023-03-23T21:25:51.328Z,5.00
2023-03-23T21:28:54.852Z,3.97
2023-03-23T21:35:04.458Z,18.90
2023-03-23T21:38:14.111Z,30.67
2023-03-23T21:41:16.815Z,22.80
2023-03-23T21:44:19.597Z,21.90
2023-03-23T21:47:22.310Z,11.03
2023-03-23T21:50:25.271Z,9.23
2023-03-23T21:53:30.935Z,4.60
2023-03-23T21:56:33.944Z,6.47
2023-03-23T21:59:36.643Z,6.73
2023-03-23T22:02:40.489Z,6.73
2023-03-23T22:05:44.132Z,6.43
2023-03-23T22:08:49.427Z,5.23
2023-03-23T22:11:52.164Z,4.50
2023-03-23T22:14:54.891Z,5.70
2023-03-23T22:17:57.670Z,4.80
2023-03-23T22:21:00.500Z,5.40
2023-03-23T22:24:05.326Z,5.27
2023-03-23T22:27:08.029Z,5.07
2023-03-23T22:30:12.142Z,5.40
2023-03-23T22:33:14.931Z,5.50
2023-03-23T22:36:18.227Z,4.20
2023-03-23T22:39:22.336Z,4.03
2023-03-23T22:42:25.192Z,3.80
2023-03-23T22:45:28.092Z,3.50
2023-03-23T22:48:31.600Z,4.47
2023-03-23T22:51:34.366Z,4.70
2023-03-23T22:54:38.386Z,4.57
2023-03-23T22:57:41.038Z,5.30
2023-03-23T23:00:46.267Z,4.80
2023-03-23T23:03:49.831Z,4.43
2023-03-23T23:07:00.424Z,5.10
2023-03-23T23:10:10.956Z,5.37
2023-03-23T23:13:14.607Z,5.50
2023-03-23T23:16:18.495Z,5.87
2023-03-23T23:19:21.322Z,5.20
2023-03-23T23:22:24.051Z,5.00
2023-03-23T23:25:28.635Z,5.17
2023-03-23T23:28:31.842Z,4.93
2023-03-23T23:31:34.650Z,5.77
2023-03-23T23:34:37.801Z,5.13
2023-03-23T23:37:40.687Z,5.00
2023-03-23T23:40:46.763Z,4.63
2023-03-23T23:43:50.027Z,4.33
2023-03-23T23:46:52.759Z,4.17
2023-03-23T23:49:55.518Z,4.47
2023-03-23T23:52:58.602Z,4.60
2023-03-23T23:56:04.394Z,4.30
2023-03-23T23:59:07.066Z,5.00
